Historyczne dane pomiarowe

Dodano dane terminowe – wersja testowa.

Dane z okresu 1951-2019

Wersja bazy: 1.34 [2019-03-16, lista zmian], aktualizacja planowana na 2019-04-15

Dane meteo z obszaru Polski uzyskane na podstawie danych udostępnionych przez Instytut Meteorologii i Gospodarki Wodnej – Państwowy Instytut Badawczy.

 

Wybierz Datę:    

       

TemperaturaWilgotnośćWiatrCiśnienieOpadyŚniegCzas trwania zjawisk
 Stacja t tx tn tng RH VA  wxwx mslp ppp RRR   cm mm wxwxwxwxwxwxwx
1994-08-14 15.4 20.2 11.9- 71.5- 4.7 1.0---- 0.0------------
1994-08-13 17.3 22.5 12.5- 81.8- 6.0 2.0---- 1.0------------
1994-08-12 15.6 22.0 11.7- 97.8- 8.0 0.0---- 26.7------------
1994-08-11 18.3 24.9 14.3- 99.0- 7.0 0.7---- 8.3------------
1994-08-10 19.4 28.0 10.7- 78.0- 3.3 0.3---- 0.3------------
1994-08-09 18.6 25.8 17.5- 97.5- 8.0 1.0---- 4.2------------
1994-08-08 21.7 28.2 16.3- 86.3- 6.7 0.0---- 3.0------------
1994-08-07 21.8 30.5 16.7- 82.0- 6.7 1.3---- 0.0------------
1994-08-06 21.9 32.0 12.1- 73.3- 3.3 1.0---- 0.0------------
1994-08-05 22.2 33.0 13.3- 71.5- 0.7 1.3---- 0.0------------
1994-08-04 21.3 28.0 13.6- 82.3- 4.7 1.0---- 0.0------------
1994-08-03 20.2 30.0 13.8- 83.5- 5.3 1.0---- 1.2------------
1994-08-02 22.2 31.5 13.9- 75.0- 4.7 1.0---- 0.0------------
1994-08-01 23.1 34.3 12.2- 75.8- 6.7 1.7---- 7.4------------
1994-07-31 23.4 34.2 12.1- 61.8- 0.0 1.0---- 0.0------------
1994-07-30 23.8 34.2 11.0- 59.5- 0.7 1.0---- 0.0------------
1994-07-29 22.7 34.0 10.3- 61.3- 0.0 0.7---- 0.0------------
1994-07-28 22.4 32.2 11.0- 62.8- 2.7 0.0---- 0.0------------
1994-07-27 21.8 32.0 11.2- 70.5- 1.7 0.0---- 0.0------------
1994-07-26 22.5 32.0 12.0- 67.3- 0.7 1.0---- 0.0------------
1994-07-25 20.4 30.8 10.1- 76.3- 5.3 0.0---- 0.0------------
1994-07-24 19.7 29.0 10.1- 67.0- 0.7 1.0---- 0.0------------
1994-07-23 19.2 28.2 7.6- 69.3- 0.7 0.7---- 0.0------------
1994-07-22 18.5 27.6 7.6- 68.0- 0.7 1.0---- 0.0------------
1994-07-21 17.7 25.4 7.1- 71.5- 0.0 1.0---- 0.0------------
1994-07-20 17.8 22.8 10.5- 74.8- 2.7 1.0---- 0.0------------
1994-07-19 19.5 25.2 13.1- 82.0- 4.7 1.7---- 0.0------------
1994-07-18 20.4 26.5 16.0- 85.0- 7.3 0.7---- 0.0------------
1994-07-17 19.2 28.0 13.8- 88.8- 4.0 0.7---- 10.4------------
1994-07-16 19.2 26.7 12.2- 88.3- 4.0 1.0---- 0.0------------
1994-07-15 18.9 27.0 11.5- 87.0- 2.7 0.0---- 1.0------------
1994-07-14 19.6 27.5 11.3- 76.8- 5.3 0.7---- 0.8------------
1994-07-13 19.0 26.6 10.1- 77.0- 4.0 1.0---- 0.0------------
1994-07-12 20.2 24.5 14.5- 79.5- 5.3 1.0---- 0.0------------
1994-07-11 17.6 23.7 10.1- 83.5- 4.0 1.0---- 0.0------------
1994-07-10 15.0 19.6 11.7- 91.8- 6.7 1.0---- 7.6------------
1994-07-09 13.5 18.5 9.5- 97.8- 8.0 0.0---- 10.2------------
1994-07-08 16.4 20.5 13.0- 79.3- 5.3 1.3---- 0.0------------
1994-07-07 16.6 26.5 8.8- 86.0- 8.0 1.0---- 19.7------------
1994-07-06 19.4 25.0 10.7- 73.8- 2.0 1.0---- 0.0------------
1994-07-05 18.0 27.1 10.1- 89.0- 5.3 0.0---- 0.0------------
1994-07-04 19.7 28.5 7.6- 70.0- 0.0 1.0---- 0.0------------
1994-07-03 17.8 27.0 7.1- 68.3- 0.0 1.7---- 0.0------------
1994-07-02 17.4 24.3 7.4- 72.5- 0.0 0.0---- 0.0------------
1994-07-01 20.1 24.0 16.5- 71.0- 0.0 1.3---- 0.0------------
1994-06-30 20.8 26.9 15.9- 89.3- 7.3 1.7---- 0.0------------
1994-06-29 22.6 30.8 14.3- 83.5- 2.7 0.0---- 0.0------------
1994-06-28 23.1 29.5 15.7- 84.3- 2.7 1.0---- 0.0------------
1994-06-27 23.7 31.0 13.5- 76.8- 2.7 0.0---- 0.0------------
1994-06-26 19.0 30.0 6.0- 71.8- 0.0 0.0---- 0.0------------
1994-06-25 14.9 23.5 1.8- 65.0- 0.0 1.0---- 0.0------------
1994-06-24 13.9 20.5 3.8- 68.3- 0.0 2.3---- 0.0------------
1994-06-23 16.6 25.8 14.5- 68.3- 4.3 3.3---- 0.0------------
1994-06-22 17.8 26.5 6.1- 77.5- 0.7 1.0---- 0.0------------
1994-06-21 15.2 21.0 6.0- 76.0- 0.7 0.3---- 0.0------------
1994-06-20 15.2 25.4 7.1- 85.5- 6.0 1.0---- 0.0------------
1994-06-19 18.3 26.0 11.3- 67.8- 4.0 2.0---- 0.0------------
1994-06-18 11.7 20.2 3.2- 81.3- 4.7 2.3---- 7.5------------
1994-06-17 10.4 15.3 8.4- 89.0- 7.0 1.0---- 0.8------------
1994-06-16 12.6 17.1 5.1- 84.5- 6.0 0.0---- 2.0------------
610.4 ms

 

Źródłem pochodzenia danych jest Instytut Meteorologii i Gospodarki Wodnej – Państwowy Instytut Badawczy. Dane Instytutu Meteorologii i Gospodarki Wodnej – Państwowego Instytutu Badawczego zostały przetworzone.

Dane źródłowe można odnaleźć na stronie https://dane.imgw.pl